Airfield :
LOGIN :

Register | Disclaimer

   EN    FR    IT 

 










Legend :    VFR   Marginal VFR   IFR   Intensive IFR   Very Intensive IFR
Visi :
Ceiling :
>= 8 km
>= 3000ft
5 to 8 km
1000 to 3000 ft
1500m to 5 km
500 to 1000 ft
800 to 1500m
200 to 500 ft
< 800m
< 200 ft
Symbols :   Thunderstorms  Fog  Heavy snow  Heavy precipitations  Wind > 20 kt
SIGMETs :     Misc.  Thunderstorms  Icing  Turbulence  Mountain Waves  Volcanic Ashes






- Airport Elevation : 3463 ft
- IATA code : ASR


LTAU - Erkilet AB

CURRENT METAR :
  • 221620Z 34003KT 320V020 CAVOK M02/M06 Q1024 NOSIG RMK RWY07 28004KT

EXPIRED METARs :
  • 221550Z VRB02KT CAVOK M02/M07 Q1024 NOSIG RMK RWY07 34006KT
  • 221520Z VRB01KT CAVOK M01/M07 Q1024 NOSIG RMK RWY07 33003KT 290V010
  • 221450Z 00000KT CAVOK M00/M07 Q1024 NOSIG RMK RWY07 10003KT
  • 221420Z VRB01KT CAVOK 01/M08 Q1024 NOSIG RMK RWY07 18003KT 140V220
  • 221350Z VRB02KT 9999 FEW040 SCT180 01/M08 Q1024 NOSIG RMK RWY07 11003KT

TAF TAF LTAU
Valid from the 22 at 12:00 until the 23 at 12:00 UTC


221040Z 2212/2312 VRB02KT 9999 SCT040
BECMG 2214/2217 CAVOK
TEMPO 2304/2308 FEW040
BECMG 2309/2312 29012KT SCT040 BKN100



MET'MAP, your aeronautical weather chart ! - Copyright ORBIFLY December 2007 - Disclaimer

ORBIFLY MET'MAP TEAM :

Programming & Development : Alexandra Zaïnal
Concept & original design : Baudouin d'Aumeries
Assistance for programming : Marc-Olivier Méhu
Technical & hardware support : Manuel Goepfert

Contact : metmap@orbifly.com




SOURCES & CREDITS :

   NOAA